Terminal Aerodrome Forecast
Issued by NWS

Home | Current Version | Previous Version | Text Only | Print | Product List | Glossary On
Versions: 1 2 3 4 5 6 7 8 9 10 11 12 13 14 15 16 17 18
000
FTAK31 PAJN 301100
TAFASI
TAF
PASI 301130Z 3012/3112 12010KT P6SM VCSH SCT040 BKN080 OVC100
     FM301600 06006KT P6SM FEW080 SCT200
     FM310000 32008KT P6SM VCSH FEW035 BKN120
     FM310600 VRB05KT P6SM -RA BKN025 OVC050=

USA.gov is the U.S. government's official web portal to all federal, state and local government web resources and services.